Terminal Aerodrome Forecast
Issued by NWS

Home | Current Version | Previous Version | Text Only | Print | Product List | Glossary On
Versions: 1 2 3 4 5 6 7 8 9 10 11 12 13 14 15 16 17 18 19 20 21
848
FTUS43 KPAH 242333
TAFCGI
TAF
KCGI 242333Z 2500/2524 15010KT P6SM BKN050
     FM250500 17012KT P6SM BKN110 WS020/18045KT
     FM250800 17015G25KT 6SM -SHRA VCTS BKN040CB
      TEMPO 2508/2512 3SM SHRA BR BKN025
     FM251200 16010KT P6SM -SHRA BKN025
     FM251700 17015G24KT P6SM -SHRA VCTS BKN035CB=

USA.gov is the U.S. government's official web portal to all federal, state and local government web resources and services.